Harbor Springs, Michigan
Current Conditions -  °F | °C
As of 4:14 AM on Monday 20 Oct 2014 (Local Time) from KMGN Reporting Station
Overcast Overcast  
Wind Chill: 51°   Ceiling: 2200
Heat Index: 51°   Visibility: 10mi
Dew Point: 46°   Wind: 3mph
Humidity: 83%   Direction: 170°S
Pressure: 29.75"   Gusts: NA
Location:  45.43°N, 84.99°W
Report Text: KMGN 200814Z AUTO 17003KT 10SM SCT014 BKN022 OVC030 10/07 A2975 RMK AO2 T01040076
Loading
Personal Weather Stations






























Interactive Weather Map
Tropical Storm Tracking
New forecast layout! Learn more

10-Day Weather Forecast

Advertisements
Track Severe Weather on mobile